Terminal Aerodrome Forecast
Issued by NWS Wilmington, OH

Current Version | Previous Version | Text Only | Print | Product List | Glossary Off
Versions: 1 2 3 4 5 6 7 8 9 10 11 12 13 14 15 16 17 18 19 20 21 22 23 24 25 26 27 28 29 30 31 32 33 34 35

000
FTUS41 KILN 282105 AAD
TAFCVG
TAF AMD
KCVG 282105Z 2821/2924 28006KT P6SM VCTS FEW045CB SCT070 BKN090
     FM282200 27009KT P6SM SCT050
     FM290800 28004KT 5SM BR OVC008
     FM291000 29004KT 2SM BR VV003
     FM291400 32006KT P6SM BKN015
     FM291600 30008KT P6SM BKN035=

USA.gov is the U.S. government's official web portal to all federal, state and local government web resources and services.